Herk-de-Stad, Belgium
Current Conditions -  °F | °C
As of 5:21 AM on Wednesday 28 Jan 2015 (Local Time) from EBDT Reporting Station
Broken Clouds Broken Clouds  
Wind Chill: 35°   Ceiling: 3600
Heat Index: 41°   Visibility: 6mi
Dew Point: 37°   Wind: 10mph
Humidity: 87%   Direction: 200°SSW
Pressure: 30"   Gusts: NA
Location:  50.94°N, 5.17°E
Report Text: EBDT 280421Z 20009KT 9999 FEW027 BKN036 05/03 Q1016 BLU
Loading
Personal Weather Stations






























Interactive Weather Map New forecast layout! Learn more

10-Day Weather Forecast

Advertisements
Track Severe Weather on mobile